sensor_id;sensor_type;location;lat;lon;timestamp;P1;durP1;ratioP1;P2;durP2;ratioP2
77748;SDS011;66938;52.084;5.228;2023-08-21T00:00:34;6.0;;;2.4;;
77748;SDS011;66938;52.084;5.228;2023-08-21T00:03:47;4.5;;;2.21;;
77748;SDS011;66938;52.084;5.228;2023-08-21T00:05:25;5.5;;;2.31;;
77748;SDS011;66938;52.084;5.228;2023-08-21T00:07:02;5.7;;;2.1;;
77748;SDS011;66938;52.084;5.228;2023-08-21T00:08:38;7.0;;;2.31;;
77748;SDS011;66938;52.084;5.228;2023-08-21T00:11:53;5.4;;;2.21;;
77748;SDS011;66938;52.084;5.228;2023-08-21T00:13:30;4.91;;;2.21;;
77748;SDS011;66938;52.084;5.228;2023-08-21T00:15:08;7.6;;;2.4;;
77748;SDS011;66938;52.084;5.228;2023-08-21T00:18:22;5.8;;;2.21;;
77748;SDS011;66938;52.084;5.228;2023-08-21T00:20:00;4.1;;;2.1;;
77748;SDS011;66938;52.084;5.228;2023-08-21T00:21:37;4.8;;;2.4;;
77748;SDS011;66938;52.084;5.228;2023-08-21T00:23:14;4.61;;;2.21;;
77748;SDS011;66938;52.084;5.228;2023-08-21T00:26:28;6.1;;;2.4;;
77748;SDS011;66938;52.084;5.228;2023-08-21T00:28:05;6.4;;;2.6;;
77748;SDS011;66938;52.084;5.228;2023-08-21T00:29:42;5.2;;;2.21;;
77748;SDS011;66938;52.084;5.228;2023-08-21T00:32:56;5.7;;;2.4;;
77748;SDS011;66938;52.084;5.228;2023-08-21T00:34:33;6.3;;;2.5;;
77748;SDS011;66938;52.084;5.228;2023-08-21T00:36:10;5.4;;;2.31;;
77748;SDS011;66938;52.084;5.228;2023-08-21T00:37:46;5.2;;;2.4;;
77748;SDS011;66938;52.084;5.228;2023-08-21T00:40:59;6.5;;;2.4;;
77748;SDS011;66938;52.084;5.228;2023-08-21T00:42:36;6.2;;;2.21;;
77748;SDS011;66938;52.084;5.228;2023-08-21T00:45:50;4.2;;;2.31;;
77748;SDS011;66938;52.084;5.228;2023-08-21T00:47:27;5.9;;;2.5;;
77748;SDS011;66938;52.084;5.228;2023-08-21T00:49:04;4.1;;;2.0;;
77748;SDS011;66938;52.084;5.228;2023-08-21T00:52:19;5.8;;;2.21;;
77748;SDS011;66938;52.084;5.228;2023-08-21T00:53:55;6.3;;;2.31;;
77748;SDS011;66938;52.084;5.228;2023-08-21T00:55:32;4.8;;;2.31;;
77748;SDS011;66938;52.084;5.228;2023-08-21T00:57:10;5.6;;;2.5;;
77748;SDS011;66938;52.084;5.228;2023-08-21T01:00:25;5.5;;;2.21;;
77748;SDS011;66938;52.084;5.228;2023-08-21T01:02:04;4.3;;;2.4;;
77748;SDS011;66938;52.084;5.228;2023-08-21T01:03:41;5.3;;;2.21;;
77748;SDS011;66938;52.084;5.228;2023-08-21T01:06:55;5.9;;;2.31;;
77748;SDS011;66938;52.084;5.228;2023-08-21T01:08:35;4.8;;;2.1;;
77748;SDS011;66938;52.084;5.228;2023-08-21T01:10:26;4.61;;;1.9;;
77748;SDS011;66938;52.084;5.228;2023-08-21T01:12:20;5.6;;;2.1;;
77748;SDS011;66938;52.084;5.228;2023-08-21T01:14:13;5.3;;;2.5;;
77748;SDS011;66938;52.084;5.228;2023-08-21T01:15:59;5.7;;;2.21;;
77748;SDS011;66938;52.084;5.228;2023-08-21T01:19:18;5.9;;;2.21;;
77748;SDS011;66938;52.084;5.228;2023-08-21T01:21:07;4.61;;;2.31;;
77748;SDS011;66938;52.084;5.228;2023-08-21T01:22:44;4.7;;;2.4;;
77748;SDS011;66938;52.084;5.228;2023-08-21T01:24:20;5.8;;;2.4;;
77748;SDS011;66938;52.084;5.228;2023-08-21T01:27:34;4.7;;;2.4;;
77748;SDS011;66938;52.084;5.228;2023-08-21T01:29:12;4.61;;;2.1;;
77748;SDS011;66938;52.084;5.228;2023-08-21T01:30:49;5.3;;;2.21;;
77748;SDS011;66938;52.084;5.228;2023-08-21T01:34:28;4.8;;;2.0;;
77748;SDS011;66938;52.084;5.228;2023-08-21T01:36:06;5.8;;;2.21;;
77748;SDS011;66938;52.084;5.228;2023-08-21T01:37:43;5.8;;;2.21;;
77748;SDS011;66938;52.084;5.228;2023-08-21T01:39:20;5.5;;;2.31;;
77748;SDS011;66938;52.084;5.228;2023-08-21T01:42:35;5.7;;;2.31;;
77748;SDS011;66938;52.084;5.228;2023-08-21T01:44:12;5.2;;;2.4;;
77748;SDS011;66938;52.084;5.228;2023-08-21T01:45:50;4.5;;;2.1;;
77748;SDS011;66938;52.084;5.228;2023-08-21T01:47:27;6.3;;;2.5;;
77748;SDS011;66938;52.084;5.228;2023-08-21T01:50:41;5.5;;;2.31;;
77748;SDS011;66938;52.084;5.228;2023-08-21T01:52:17;5.9;;;2.31;;
77748;SDS011;66938;52.084;5.228;2023-08-21T01:53:54;5.4;;;2.5;;
77748;SDS011;66938;52.084;5.228;2023-08-21T01:57:08;6.1;;;2.31;;
77748;SDS011;66938;52.084;5.228;2023-08-21T01:58:45;4.1;;;2.1;;
77748;SDS011;66938;52.084;5.228;2023-08-21T02:00:21;4.8;;;2.31;;
77748;SDS011;66938;52.084;5.228;2023-08-21T02:01:58;5.4;;;2.4;;
77748;SDS011;66938;52.084;5.228;2023-08-21T02:05:12;6.6;;;2.31;;
77748;SDS011;66938;52.084;5.228;2023-08-21T02:06:49;5.7;;;2.21;;
77748;SDS011;66938;52.084;5.228;2023-08-21T02:08:27;4.61;;;2.21;;
77748;SDS011;66938;52.084;5.228;2023-08-21T02:11:46;5.11;;;2.0;;
77748;SDS011;66938;52.084;5.228;2023-08-21T02:13:23;4.5;;;2.21;;
77748;SDS011;66938;52.084;5.228;2023-08-21T02:15:00;5.9;;;2.4;;
77748;SDS011;66938;52.084;5.228;2023-08-21T02:16:37;5.3;;;2.4;;
77748;SDS011;66938;52.084;5.228;2023-08-21T02:19:51;5.3;;;2.4;;
77748;SDS011;66938;52.084;5.228;2023-08-21T02:21:27;6.4;;;2.7;;
77748;SDS011;66938;52.084;5.228;2023-08-21T02:23:04;4.41;;;2.21;;
77748;SDS011;66938;52.084;5.228;2023-08-21T02:26:17;7.4;;;2.5;;
77748;SDS011;66938;52.084;5.228;2023-08-21T02:27:54;4.91;;;2.4;;
77748;SDS011;66938;52.084;5.228;2023-08-21T02:29:31;5.6;;;2.4;;
77748;SDS011;66938;52.084;5.228;2023-08-21T02:32:45;6.1;;;2.31;;
77748;SDS011;66938;52.084;5.228;2023-08-21T02:34:22;5.9;;;2.31;;
77748;SDS011;66938;52.084;5.228;2023-08-21T02:36:00;6.1;;;2.31;;
77748;SDS011;66938;52.084;5.228;2023-08-21T02:37:37;5.5;;;2.4;;
77748;SDS011;66938;52.084;5.228;2023-08-21T02:40:50;5.3;;;2.21;;
77748;SDS011;66938;52.084;5.228;2023-08-21T02:42:27;5.4;;;2.4;;
77748;SDS011;66938;52.084;5.228;2023-08-21T02:44:04;5.7;;;2.4;;
77748;SDS011;66938;52.084;5.228;2023-08-21T02:47:18;4.3;;;2.1;;
77748;SDS011;66938;52.084;5.228;2023-08-21T02:48:55;5.6;;;2.4;;
77748;SDS011;66938;52.084;5.228;2023-08-21T02:50:32;5.6;;;2.4;;
77748;SDS011;66938;52.084;5.228;2023-08-21T02:53:45;5.6;;;2.4;;
77748;SDS011;66938;52.084;5.228;2023-08-21T02:55:21;6.2;;;2.5;;
77748;SDS011;66938;52.084;5.228;2023-08-21T02:56:59;5.7;;;2.7;;
77748;SDS011;66938;52.084;5.228;2023-08-21T02:58:36;3.8;;;2.1;;
77748;SDS011;66938;52.084;5.228;2023-08-21T03:01:50;5.6;;;2.4;;
77748;SDS011;66938;52.084;5.228;2023-08-21T03:03:27;5.3;;;2.31;;
77748;SDS011;66938;52.084;5.228;2023-08-21T03:05:04;4.7;;;2.31;;
77748;SDS011;66938;52.084;5.228;2023-08-21T03:08:17;4.3;;;2.5;;
77748;SDS011;66938;52.084;5.228;2023-08-21T03:09:54;4.61;;;2.31;;
77748;SDS011;66938;52.084;5.228;2023-08-21T03:11:31;5.0;;;2.7;;
77748;SDS011;66938;52.084;5.228;2023-08-21T03:13:09;4.91;;;2.5;;
77748;SDS011;66938;52.084;5.228;2023-08-21T03:16:22;6.0;;;2.21;;
77748;SDS011;66938;52.084;5.228;2023-08-21T03:18:00;5.11;;;2.8;;
77748;SDS011;66938;52.084;5.228;2023-08-21T03:19:37;4.8;;;2.4;;
77748;SDS011;66938;52.084;5.228;2023-08-21T03:22:51;4.91;;;2.5;;
77748;SDS011;66938;52.084;5.228;2023-08-21T03:24:28;5.7;;;2.5;;
77748;SDS011;66938;52.084;5.228;2023-08-21T03:26:05;4.41;;;2.4;;
77748;SDS011;66938;52.084;5.228;2023-08-21T03:29:18;4.8;;;2.5;;
77748;SDS011;66938;52.084;5.228;2023-08-21T03:30:55;5.3;;;2.5;;
77748;SDS011;66938;52.084;5.228;2023-08-21T03:32:32;5.2;;;2.6;;
77748;SDS011;66938;52.084;5.228;2023-08-21T03:34:09;5.8;;;2.6;;
77748;SDS011;66938;52.084;5.228;2023-08-21T03:37:23;5.11;;;2.6;;
77748;SDS011;66938;52.084;5.228;2023-08-21T03:39:00;5.6;;;2.6;;
77748;SDS011;66938;52.084;5.228;2023-08-21T03:40:38;4.61;;;2.4;;
77748;SDS011;66938;52.084;5.228;2023-08-21T03:43:53;5.6;;;2.31;;
77748;SDS011;66938;52.084;5.228;2023-08-21T03:45:30;6.3;;;2.7;;
77748;SDS011;66938;52.084;5.228;2023-08-21T03:47:07;4.7;;;2.4;;
77748;SDS011;66938;52.084;5.228;2023-08-21T03:48:45;5.2;;;2.5;;
77748;SDS011;66938;52.084;5.228;2023-08-21T03:51:58;4.7;;;2.4;;
77748;SDS011;66938;52.084;5.228;2023-08-21T03:53:36;6.9;;;2.6;;
77748;SDS011;66938;52.084;5.228;2023-08-21T03:55:13;7.0;;;2.9;;
77748;SDS011;66938;52.084;5.228;2023-08-21T03:58:27;5.3;;;2.5;;
77748;SDS011;66938;52.084;5.228;2023-08-21T04:00:05;5.7;;;2.6;;
77748;SDS011;66938;52.084;5.228;2023-08-21T04:01:43;4.2;;;2.4;;
77748;SDS011;66938;52.084;5.228;2023-08-21T04:03:20;5.4;;;2.6;;
77748;SDS011;66938;52.084;5.228;2023-08-21T04:06:35;5.6;;;2.5;;
77748;SDS011;66938;52.084;5.228;2023-08-21T04:08:12;5.7;;;2.5;;
77748;SDS011;66938;52.084;5.228;2023-08-21T04:09:50;5.4;;;2.6;;
77748;SDS011;66938;52.084;5.228;2023-08-21T04:13:05;5.5;;;2.9;;
77748;SDS011;66938;52.084;5.228;2023-08-21T04:14:41;5.11;;;2.21;;
77748;SDS011;66938;52.084;5.228;2023-08-21T04:16:18;6.3;;;2.9;;
77748;SDS011;66938;52.084;5.228;2023-08-21T04:19:32;4.0;;;2.21;;
77748;SDS011;66938;52.084;5.228;2023-08-21T04:21:09;6.2;;;2.5;;
77748;SDS011;66938;52.084;5.228;2023-08-21T04:22:47;5.6;;;2.5;;
77748;SDS011;66938;52.084;5.228;2023-08-21T04:24:24;5.8;;;2.6;;
77748;SDS011;66938;52.084;5.228;2023-08-21T04:27:38;6.2;;;2.7;;
77748;SDS011;66938;52.084;5.228;2023-08-21T04:29:15;4.8;;;2.4;;
77748;SDS011;66938;52.084;5.228;2023-08-21T04:30:52;8.5;;;2.7;;
77748;SDS011;66938;52.084;5.228;2023-08-21T04:34:06;6.3;;;2.8;;
77748;SDS011;66938;52.084;5.228;2023-08-21T04:35:43;4.3;;;2.31;;
77748;SDS011;66938;52.084;5.228;2023-08-21T04:37:20;4.8;;;2.4;;
77748;SDS011;66938;52.084;5.228;2023-08-21T04:38:57;4.8;;;2.5;;
77748;SDS011;66938;52.084;5.228;2023-08-21T04:42:11;4.41;;;2.4;;
77748;SDS011;66938;52.084;5.228;2023-08-21T04:43:48;4.7;;;2.6;;
77748;SDS011;66938;52.084;5.228;2023-08-21T04:45:25;5.3;;;2.6;;
77748;SDS011;66938;52.084;5.228;2023-08-21T04:48:57;5.3;;;2.6;;
77748;SDS011;66938;52.084;5.228;2023-08-21T04:50:34;5.8;;;3.0;;
77748;SDS011;66938;52.084;5.228;2023-08-21T04:52:11;6.0;;;2.6;;
77748;SDS011;66938;52.084;5.228;2023-08-21T04:53:48;4.41;;;2.4;;
77748;SDS011;66938;52.084;5.228;2023-08-21T04:57:02;5.0;;;2.9;;
77748;SDS011;66938;52.084;5.228;2023-08-21T04:58:38;5.0;;;2.9;;
77748;SDS011;66938;52.084;5.228;2023-08-21T05:00:15;5.7;;;2.8;;
77748;SDS011;66938;52.084;5.228;2023-08-21T05:01:53;5.11;;;2.6;;
77748;SDS011;66938;52.084;5.228;2023-08-21T05:05:07;6.8;;;2.8;;
77748;SDS011;66938;52.084;5.228;2023-08-21T05:06:44;10.9;;;6.9;;
77748;SDS011;66938;52.084;5.228;2023-08-21T05:08:24;5.11;;;3.2;;
77748;SDS011;66938;52.084;5.228;2023-08-21T05:11:40;5.7;;;2.8;;
77748;SDS011;66938;52.084;5.228;2023-08-21T05:13:17;5.5;;;2.7;;
77748;SDS011;66938;52.084;5.228;2023-08-21T05:14:54;6.3;;;2.9;;
77748;SDS011;66938;52.084;5.228;2023-08-21T05:16:31;5.8;;;2.8;;
77748;SDS011;66938;52.084;5.228;2023-08-21T05:19:45;4.91;;;2.5;;
77748;SDS011;66938;52.084;5.228;2023-08-21T05:21:22;4.5;;;2.4;;
77748;SDS011;66938;52.084;5.228;2023-08-21T05:23:00;5.4;;;2.8;;
77748;SDS011;66938;52.084;5.228;2023-08-21T05:26:14;5.0;;;2.7;;
77748;SDS011;66938;52.084;5.228;2023-08-21T05:27:51;4.41;;;2.6;;
77748;SDS011;66938;52.084;5.228;2023-08-21T05:29:28;5.9;;;2.6;;
77748;SDS011;66938;52.084;5.228;2023-08-21T05:32:42;5.0;;;2.7;;
77748;SDS011;66938;52.084;5.228;2023-08-21T05:34:18;4.2;;;2.21;;
77748;SDS011;66938;52.084;5.228;2023-08-21T05:35:56;4.61;;;2.31;;
77748;SDS011;66938;52.084;5.228;2023-08-21T05:37:33;5.9;;;2.5;;
77748;SDS011;66938;52.084;5.228;2023-08-21T05:40:48;4.8;;;2.5;;
77748;SDS011;66938;52.084;5.228;2023-08-21T05:42:25;5.3;;;2.5;;
77748;SDS011;66938;52.084;5.228;2023-08-21T05:44:02;6.3;;;2.7;;
77748;SDS011;66938;52.084;5.228;2023-08-21T05:47:17;5.3;;;2.9;;
77748;SDS011;66938;52.084;5.228;2023-08-21T05:48:53;5.11;;;2.5;;
77748;SDS011;66938;52.084;5.228;2023-08-21T05:50:30;5.9;;;2.8;;
77748;SDS011;66938;52.084;5.228;2023-08-21T05:52:08;4.91;;;2.8;;
77748;SDS011;66938;52.084;5.228;2023-08-21T05:55:23;5.3;;;2.6;;
77748;SDS011;66938;52.084;5.228;2023-08-21T05:57:02;4.91;;;2.5;;
77748;SDS011;66938;52.084;5.228;2023-08-21T05:58:39;4.8;;;2.6;;
77748;SDS011;66938;52.084;5.228;2023-08-21T06:01:54;4.3;;;2.5;;
77748;SDS011;66938;52.084;5.228;2023-08-21T06:03:31;4.3;;;2.4;;
77748;SDS011;66938;52.084;5.228;2023-08-21T06:05:09;5.2;;;2.5;;
77748;SDS011;66938;52.084;5.228;2023-08-21T06:06:46;5.5;;;2.8;;
77748;SDS011;66938;52.084;5.228;2023-08-21T06:10:00;5.0;;;2.6;;
77748;SDS011;66938;52.084;5.228;2023-08-21T06:11:37;4.41;;;2.4;;
77748;SDS011;66938;52.084;5.228;2023-08-21T06:13:14;4.61;;;2.31;;
77748;SDS011;66938;52.084;5.228;2023-08-21T06:16:29;5.9;;;2.8;;
77748;SDS011;66938;52.084;5.228;2023-08-21T06:18:07;6.2;;;2.5;;
77748;SDS011;66938;52.084;5.228;2023-08-21T06:19:44;5.11;;;2.8;;
77748;SDS011;66938;52.084;5.228;2023-08-21T06:22:58;3.9;;;2.31;;
77748;SDS011;66938;52.084;5.228;2023-08-21T06:24:35;5.2;;;2.7;;
77748;SDS011;66938;52.084;5.228;2023-08-21T06:26:12;4.3;;;2.5;;
77748;SDS011;66938;52.084;5.228;2023-08-21T06:27:49;5.0;;;2.4;;
77748;SDS011;66938;52.084;5.228;2023-08-21T06:31:03;6.2;;;2.7;;
77748;SDS011;66938;52.084;5.228;2023-08-21T06:32:40;7.8;;;2.8;;
77748;SDS011;66938;52.084;5.228;2023-08-21T06:34:17;5.3;;;2.9;;
77748;SDS011;66938;52.084;5.228;2023-08-21T06:37:31;4.8;;;2.7;;
77748;SDS011;66938;52.084;5.228;2023-08-21T06:39:09;6.0;;;2.8;;
77748;SDS011;66938;52.084;5.228;2023-08-21T06:40:46;7.2;;;2.9;;
77748;SDS011;66938;52.084;5.228;2023-08-21T06:42:23;4.91;;;2.7;;
77748;SDS011;66938;52.084;5.228;2023-08-21T06:45:37;5.0;;;2.9;;
77748;SDS011;66938;52.084;5.228;2023-08-21T06:47:14;6.4;;;3.0;;
77748;SDS011;66938;52.084;5.228;2023-08-21T06:48:50;7.0;;;3.0;;
77748;SDS011;66938;52.084;5.228;2023-08-21T06:52:05;4.91;;;2.9;;
77748;SDS011;66938;52.084;5.228;2023-08-21T06:53:42;7.5;;;3.2;;
77748;SDS011;66938;52.084;5.228;2023-08-21T06:55:19;9.9;;;3.3;;
77748;SDS011;66938;52.084;5.228;2023-08-21T06:56:56;8.81;;;3.0;;
77748;SDS011;66938;52.084;5.228;2023-08-21T07:00:11;7.6;;;2.7;;
77748;SDS011;66938;52.084;5.228;2023-08-21T07:01:49;7.0;;;2.8;;
77748;SDS011;66938;52.084;5.228;2023-08-21T07:03:26;9.1;;;2.7;;
77748;SDS011;66938;52.084;5.228;2023-08-21T07:06:40;7.7;;;2.6;;
77748;SDS011;66938;52.084;5.228;2023-08-21T07:08:18;8.6;;;3.0;;
77748;SDS011;66938;52.084;5.228;2023-08-21T07:09:55;8.0;;;2.7;;
77748;SDS011;66938;52.084;5.228;2023-08-21T07:13:09;6.4;;;2.4;;
77748;SDS011;66938;52.084;5.228;2023-08-21T07:14:46;8.2;;;2.6;;
77748;SDS011;66938;52.084;5.228;2023-08-21T07:16:23;7.4;;;2.7;;
77748;SDS011;66938;52.084;5.228;2023-08-21T07:18:00;8.4;;;2.7;;
77748;SDS011;66938;52.084;5.228;2023-08-21T07:21:14;7.3;;;2.1;;
77748;SDS011;66938;52.084;5.228;2023-08-21T07:22:51;5.9;;;2.1;;
77748;SDS011;66938;52.084;5.228;2023-08-21T07:24:28;6.1;;;2.31;;
77748;SDS011;66938;52.084;5.228;2023-08-21T07:27:42;8.0;;;2.8;;
77748;SDS011;66938;52.084;5.228;2023-08-21T07:29:19;8.0;;;2.8;;
77748;SDS011;66938;52.084;5.228;2023-08-21T07:30:56;6.6;;;2.0;;
77748;SDS011;66938;52.084;5.228;2023-08-21T07:32:34;6.6;;;2.0;;
77748;SDS011;66938;52.084;5.228;2023-08-21T07:35:56;5.8;;;1.6;;
77748;SDS011;66938;52.084;5.228;2023-08-21T07:37:34;6.2;;;1.4;;
77748;SDS011;66938;52.084;5.228;2023-08-21T07:39:11;3.9;;;1.4;;
77748;SDS011;66938;52.084;5.228;2023-08-21T07:42:24;8.2;;;1.9;;
77748;SDS011;66938;52.084;5.228;2023-08-21T07:44:01;5.3;;;1.6;;
77748;SDS011;66938;52.084;5.228;2023-08-21T07:45:38;4.5;;;1.3;;
77748;SDS011;66938;52.084;5.228;2023-08-21T07:47:15;5.4;;;1.5;;
77748;SDS011;66938;52.084;5.228;2023-08-21T07:50:30;5.4;;;1.5;;
77748;SDS011;66938;52.084;5.228;2023-08-21T07:52:08;5.2;;;1.6;;
77748;SDS011;66938;52.084;5.228;2023-08-21T07:53:45;5.2;;;1.6;;
77748;SDS011;66938;52.084;5.228;2023-08-21T07:56:59;6.8;;;1.7;;
77748;SDS011;66938;52.084;5.228;2023-08-21T07:58:36;6.7;;;1.6;;
77748;SDS011;66938;52.084;5.228;2023-08-21T08:00:14;6.3;;;1.7;;
77748;SDS011;66938;52.084;5.228;2023-08-21T08:01:52;5.5;;;1.5;;
77748;SDS011;66938;52.084;5.228;2023-08-21T08:05:07;5.5;;;1.9;;
77748;SDS011;66938;52.084;5.228;2023-08-21T08:06:44;5.8;;;1.8;;
77748;SDS011;66938;52.084;5.228;2023-08-21T08:08:23;4.2;;;1.4;;
77748;SDS011;66938;52.084;5.228;2023-08-21T08:11:39;5.5;;;2.5;;
77748;SDS011;66938;52.084;5.228;2023-08-21T08:13:16;5.9;;;2.31;;
77748;SDS011;66938;52.084;5.228;2023-08-21T08:14:53;6.7;;;1.9;;
77748;SDS011;66938;52.084;5.228;2023-08-21T08:16:30;5.11;;;1.8;;
77748;SDS011;66938;52.084;5.228;2023-08-21T08:19:48;6.3;;;1.6;;
77748;SDS011;66938;52.084;5.228;2023-08-21T08:21:25;5.4;;;1.6;;
77748;SDS011;66938;52.084;5.228;2023-08-21T08:23:03;5.4;;;1.7;;
77748;SDS011;66938;52.084;5.228;2023-08-21T08:26:17;6.3;;;1.7;;
77748;SDS011;66938;52.084;5.228;2023-08-21T08:27:54;6.3;;;1.7;;
77748;SDS011;66938;52.084;5.228;2023-08-21T08:29:31;4.7;;;1.4;;
77748;SDS011;66938;52.084;5.228;2023-08-21T08:31:14;6.4;;;2.21;;
77748;SDS011;66938;52.084;5.228;2023-08-21T08:34:28;7.3;;;1.9;;
77748;SDS011;66938;52.084;5.228;2023-08-21T08:36:06;7.1;;;2.21;;
77748;SDS011;66938;52.084;5.228;2023-08-21T08:37:44;6.1;;;1.8;;
77748;SDS011;66938;52.084;5.228;2023-08-21T08:40:58;7.0;;;1.9;;
77748;SDS011;66938;52.084;5.228;2023-08-21T08:42:38;7.0;;;1.9;;
77748;SDS011;66938;52.084;5.228;2023-08-21T08:44:16;6.8;;;1.8;;
77748;SDS011;66938;52.084;5.228;2023-08-21T08:45:53;5.3;;;1.6;;
77748;SDS011;66938;52.084;5.228;2023-08-21T08:49:12;7.2;;;1.5;;
77748;SDS011;66938;52.084;5.228;2023-08-21T08:50:50;6.3;;;1.9;;
77748;SDS011;66938;52.084;5.228;2023-08-21T08:52:29;5.9;;;1.8;;
77748;SDS011;66938;52.084;5.228;2023-08-21T08:54:08;5.7;;;1.6;;
77748;SDS011;66938;52.084;5.228;2023-08-21T08:57:25;5.7;;;1.5;;
77748;SDS011;66938;52.084;5.228;2023-08-21T08:59:03;4.2;;;1.6;;
77748;SDS011;66938;52.084;5.228;2023-08-21T09:00:40;6.2;;;1.7;;
77748;SDS011;66938;52.084;5.228;2023-08-21T09:03:54;5.9;;;1.8;;
77748;SDS011;66938;52.084;5.228;2023-08-21T09:05:32;6.0;;;1.7;;
77748;SDS011;66938;52.084;5.228;2023-08-21T09:07:11;8.1;;;1.9;;
77748;SDS011;66938;52.084;5.228;2023-08-21T09:08:56;7.4;;;2.1;;
77748;SDS011;66938;52.084;5.228;2023-08-21T09:12:13;8.31;;;2.31;;
77748;SDS011;66938;52.084;5.228;2023-08-21T09:13:51;6.9;;;2.1;;
77748;SDS011;66938;52.084;5.228;2023-08-21T09:15:30;7.5;;;2.1;;
77748;SDS011;66938;52.084;5.228;2023-08-21T09:17:08;6.6;;;2.31;;
77748;SDS011;66938;52.084;5.228;2023-08-21T09:20:24;7.6;;;2.0;;
77748;SDS011;66938;52.084;5.228;2023-08-21T09:22:07;6.0;;;2.0;;
77748;SDS011;66938;52.084;5.228;2023-08-21T09:23:47;4.91;;;1.8;;
77748;SDS011;66938;52.084;5.228;2023-08-21T09:25:26;5.2;;;1.6;;
77748;SDS011;66938;52.084;5.228;2023-08-21T09:28:51;6.5;;;2.0;;
77748;SDS011;66938;52.084;5.228;2023-08-21T09:30:28;5.9;;;1.8;;
77748;SDS011;66938;52.084;5.228;2023-08-21T09:32:05;6.9;;;1.9;;
77748;SDS011;66938;52.084;5.228;2023-08-21T09:35:20;6.3;;;2.0;;
77748;SDS011;66938;52.084;5.228;2023-08-21T09:36:58;5.9;;;1.9;;
77748;SDS011;66938;52.084;5.228;2023-08-21T09:38:36;5.8;;;2.1;;
77748;SDS011;66938;52.084;5.228;2023-08-21T09:40:16;6.7;;;2.31;;
77748;SDS011;66938;52.084;5.228;2023-08-21T09:43:37;6.2;;;2.1;;
77748;SDS011;66938;52.084;5.228;2023-08-21T09:45:19;6.2;;;1.8;;
77748;SDS011;66938;52.084;5.228;2023-08-21T09:46:57;4.8;;;1.9;;
77748;SDS011;66938;52.084;5.228;2023-08-21T09:48:35;5.4;;;1.9;;
77748;SDS011;66938;52.084;5.228;2023-08-21T09:51:50;5.5;;;1.7;;
77748;SDS011;66938;52.084;5.228;2023-08-21T09:53:29;6.2;;;2.0;;
77748;SDS011;66938;52.084;5.228;2023-08-21T09:55:06;4.7;;;1.6;;
77748;SDS011;66938;52.084;5.228;2023-08-21T09:58:24;6.6;;;1.8;;
77748;SDS011;66938;52.084;5.228;2023-08-21T10:00:02;4.7;;;1.7;;
77748;SDS011;66938;52.084;5.228;2023-08-21T10:01:40;4.7;;;1.7;;
77748;SDS011;66938;52.084;5.228;2023-08-21T10:03:20;5.5;;;1.8;;
77748;SDS011;66938;52.084;5.228;2023-08-21T10:06:36;6.7;;;2.21;;
77748;SDS011;66938;52.084;5.228;2023-08-21T10:08:15;5.5;;;1.9;;
77748;SDS011;66938;52.084;5.228;2023-08-21T10:09:54;5.2;;;1.8;;
77748;SDS011;66938;52.084;5.228;2023-08-21T10:11:33;4.7;;;1.7;;
77748;SDS011;66938;52.084;5.228;2023-08-21T10:14:47;6.3;;;2.1;;
77748;SDS011;66938;52.084;5.228;2023-08-21T10:16:25;5.6;;;2.0;;
77748;SDS011;66938;52.084;5.228;2023-08-21T10:18:17;5.2;;;1.7;;
77748;SDS011;66938;52.084;5.228;2023-08-21T10:19:55;7.0;;;2.4;;
77748;SDS011;66938;52.084;5.228;2023-08-21T10:23:23;5.7;;;2.21;;
77748;SDS011;66938;52.084;5.228;2023-08-21T10:25:02;6.6;;;2.21;;
77748;SDS011;66938;52.084;5.228;2023-08-21T10:26:39;5.0;;;1.7;;
77748;SDS011;66938;52.084;5.228;2023-08-21T10:28:16;6.3;;;1.8;;
77748;SDS011;66938;52.084;5.228;2023-08-21T10:31:34;7.1;;;2.4;;
77748;SDS011;66938;52.084;5.228;2023-08-21T10:33:12;6.8;;;2.21;;
77748;SDS011;66938;52.084;5.228;2023-08-21T10:34:51;7.0;;;2.0;;
77748;SDS011;66938;52.084;5.228;2023-08-21T10:39:13;4.61;;;1.6;;
77748;SDS011;66938;52.084;5.228;2023-08-21T10:41:07;5.6;;;1.8;;
77748;SDS011;66938;52.084;5.228;2023-08-21T10:44:54;5.5;;;2.0;;
77748;SDS011;66938;52.084;5.228;2023-08-21T10:46:39;6.5;;;1.8;;
77748;SDS011;66938;52.084;5.228;2023-08-21T10:48:26;4.7;;;1.6;;
77748;SDS011;66938;52.084;5.228;2023-08-21T10:50:04;4.2;;;1.4;;
77748;SDS011;66938;52.084;5.228;2023-08-21T10:51:43;4.41;;;1.4;;
77748;SDS011;66938;52.084;5.228;2023-08-21T10:53:21;5.7;;;1.7;;
77748;SDS011;66938;52.084;5.228;2023-08-21T10:56:39;4.41;;;1.5;;
77748;SDS011;66938;52.084;5.228;2023-08-21T10:58:16;5.4;;;1.6;;
77748;SDS011;66938;52.084;5.228;2023-08-21T10:59:54;4.7;;;1.6;;
77748;SDS011;66938;52.084;5.228;2023-08-21T11:03:25;6.6;;;1.5;;
77748;SDS011;66938;52.084;5.228;2023-08-21T11:05:02;3.0;;;1.2;;
77748;SDS011;66938;52.084;5.228;2023-08-21T11:06:39;5.4;;;1.5;;
77748;SDS011;66938;52.084;5.228;2023-08-21T11:08:17;5.4;;;1.6;;
77748;SDS011;66938;52.084;5.228;2023-08-21T11:11:34;4.61;;;1.7;;
77748;SDS011;66938;52.084;5.228;2023-08-21T11:13:11;3.4;;;1.4;;
77748;SDS011;66938;52.084;5.228;2023-08-21T11:14:47;4.41;;;1.3;;
77748;SDS011;66938;52.084;5.228;2023-08-21T11:16:24;5.6;;;1.4;;
77748;SDS011;66938;52.084;5.228;2023-08-21T11:19:38;3.8;;;1.0;;
77748;SDS011;66938;52.084;5.228;2023-08-21T11:21:16;3.0;;;0.9;;
77748;SDS011;66938;52.084;5.228;2023-08-21T11:22:55;3.8;;;1.11;;
77748;SDS011;66938;52.084;5.228;2023-08-21T11:26:20;3.3;;;1.0;;
77748;SDS011;66938;52.084;5.228;2023-08-21T11:27:57;3.2;;;0.8;;
77748;SDS011;66938;52.084;5.228;2023-08-21T11:29:36;2.6;;;0.9;;
77748;SDS011;66938;52.084;5.228;2023-08-21T11:31:13;2.9;;;1.11;;
77748;SDS011;66938;52.084;5.228;2023-08-21T11:34:41;3.6;;;1.11;;
77748;SDS011;66938;52.084;5.228;2023-08-21T11:36:18;2.7;;;1.0;;
77748;SDS011;66938;52.084;5.228;2023-08-21T11:37:55;3.6;;;1.2;;
77748;SDS011;66938;52.084;5.228;2023-08-21T11:39:41;3.6;;;1.11;;
77748;SDS011;66938;52.084;5.228;2023-08-21T11:42:59;3.6;;;1.2;;
77748;SDS011;66938;52.084;5.228;2023-08-21T11:44:40;6.1;;;1.6;;
77748;SDS011;66938;52.084;5.228;2023-08-21T11:46:18;4.41;;;1.6;;
77748;SDS011;66938;52.084;5.228;2023-08-21T11:47:55;4.2;;;1.5;;
77748;SDS011;66938;52.084;5.228;2023-08-21T11:51:08;3.7;;;1.4;;
77748;SDS011;66938;52.084;5.228;2023-08-21T11:52:44;4.5;;;1.4;;
77748;SDS011;66938;52.084;5.228;2023-08-21T11:54:20;4.0;;;1.3;;
77748;SDS011;66938;52.084;5.228;2023-08-21T11:57:33;3.8;;;1.4;;
77748;SDS011;66938;52.084;5.228;2023-08-21T11:59:09;4.8;;;1.5;;
77748;SDS011;66938;52.084;5.228;2023-08-21T12:00:46;5.8;;;1.8;;
77748;SDS011;66938;52.084;5.228;2023-08-21T12:02:23;4.41;;;1.6;;
77748;SDS011;66938;52.084;5.228;2023-08-21T12:05:50;3.2;;;1.3;;
77748;SDS011;66938;52.084;5.228;2023-08-21T12:07:26;3.3;;;1.5;;
77748;SDS011;66938;52.084;5.228;2023-08-21T12:09:02;3.1;;;1.6;;
77748;SDS011;66938;52.084;5.228;2023-08-21T12:12:15;4.1;;;1.5;;
77748;SDS011;66938;52.084;5.228;2023-08-21T12:13:52;4.5;;;1.6;;
77748;SDS011;66938;52.084;5.228;2023-08-21T12:15:28;3.7;;;1.5;;
77748;SDS011;66938;52.084;5.228;2023-08-21T12:17:04;6.0;;;1.8;;
77748;SDS011;66938;52.084;5.228;2023-08-21T12:20:18;5.4;;;1.8;;
77748;SDS011;66938;52.084;5.228;2023-08-21T12:21:54;3.8;;;1.7;;
77748;SDS011;66938;52.084;5.228;2023-08-21T12:23:31;3.9;;;1.6;;
77748;SDS011;66938;52.084;5.228;2023-08-21T12:26:45;6.1;;;2.0;;
77748;SDS011;66938;52.084;5.228;2023-08-21T12:28:22;7.0;;;1.8;;
77748;SDS011;66938;52.084;5.228;2023-08-21T12:29:58;3.9;;;1.9;;
77748;SDS011;66938;52.084;5.228;2023-08-21T12:33:10;4.2;;;1.8;;
77748;SDS011;66938;52.084;5.228;2023-08-21T12:34:47;4.3;;;1.8;;
77748;SDS011;66938;52.084;5.228;2023-08-21T12:36:24;5.4;;;1.7;;
77748;SDS011;66938;52.084;5.228;2023-08-21T12:38:00;3.7;;;1.5;;
77748;SDS011;66938;52.084;5.228;2023-08-21T12:41:13;5.0;;;1.6;;
77748;SDS011;66938;52.084;5.228;2023-08-21T12:42:50;4.1;;;1.4;;
77748;SDS011;66938;52.084;5.228;2023-08-21T12:44:26;5.5;;;1.8;;
77748;SDS011;66938;52.084;5.228;2023-08-21T12:47:39;3.9;;;1.9;;
77748;SDS011;66938;52.084;5.228;2023-08-21T12:49:16;4.1;;;1.4;;
77748;SDS011;66938;52.084;5.228;2023-08-21T12:50:52;5.0;;;1.4;;
77748;SDS011;66938;52.084;5.228;2023-08-21T12:54:03;3.3;;;1.11;;
77748;SDS011;66938;52.084;5.228;2023-08-21T12:55:40;4.0;;;1.3;;
77748;SDS011;66938;52.084;5.228;2023-08-21T12:57:16;3.7;;;1.3;;